Aeroporto :
LOGIN :

Iscrizione | Disclaimer

   EN    FR    IT 

 










Sommario :    VFR   VFR Marginale   IFR   IFR Intensivo   IFR Molto Intensivo
Visibilità : 
Base nubi : 
>= 8 km
>= 3000ft
5 / 8 km
1000 / 3000 ft
1500m / 5 km
500 / 1000 ft
800 / 1500m
200 / 500 ft
< 800m
< 200 ft
Simboli :   Temporali  Nebbia  Neve Forte  Precipitazioni Forti  Vento > 20 kt
SIGMETs :   Varie  Temporali  Ghiacco  Turbolenza  Onda orograficha  Ceneri Vulcaniche






- Altitudine del aeroporto : 856 ft
- Codice IATA : VGO


LEVX - Vigo Peinador

ULTIMO METAR :
  • 140600Z 34012G25KT 270V020 5000 SHRA BR FEW013 SCT026TCU BKN036 07/05 Q1008 TEMPO 4500 SHRA SCT025TCU

METARs OBSOLETI :
  • 140540Z VRB06G24KT 1700 SHRA BR FEW023 SCT028TCU BKN044 07/05 Q1008 TEMPO 4500 SHRA SCT025TCU
  • 140530Z VRB03KT 5000 RA BR FEW023 SCT035 BKN044 07/05 Q1007 TEMPO 4500 SHRA SCT025TCU
  • 140510Z VRB08KT 5000 RA BR FEW023 SCT031 BKN045 08/05 Q1007 TEMPO 4500 SHRA SCT025TCU
  • 140500Z 29004KT 210V350 5000 BR FEW029 SCT034 BKN043 09/05 Q1007 TEMPO 4500 SHRA SCT025TCU
  • 140430Z 31006KT 260V350 5000 BR FEW032 SCT042 BKN050 09/04 Q1008 NOSIG
  • 140400Z 25005KT 200V320 4000 BR SCT028 SCT035 BKN041 08/06 Q1008 NOSIG
  • 140330Z VRB02KT 3000 BR FEW019 BKN033 07/06 Q1009 NOSIG

TAF TAF LEVX
Valido dal 14 a 06 ore il 15 a 06 ore UTC


140500Z 1406/1506 27009KT 9999 SCT020 SCT030 TX11/1412Z TN06/1506Z
TEMPO 1406/1415 29015G30KT
TEMPO 1406/1415 29018G35KT
TEMPO 1408/1414 30020G45KT
TEMPO 1406/1415 3000 RA SHRA BKN010 SCT025TCU
PROB40
TEMPO 1406/1409 3000 -RA BR BKN005
PROB40
TEMPO 1406/1415 4500 TSRA SCT025CB



MetMap, La meteo Aeronautica in un colpo d'occhio ! - Copyright ORBIFLY Dicembre 2007 - Disclaimer

ORBIFLY MET'MAP TEAM :

Programmazione e sviluppo : Alexandra Zaïnal
Concezione e sviluppo : Baudouin d'Aumeries
Co-Programmazione e sviluppo : Marc-Olivier Méhu
Supporto tecnico e logistico : Manuel Goepfert
Aiuto per la traduzione : Arnaldo La Scala

Contatto : metmap@orbifly.com




FONTI E CREDITI :

   NOAA